Time;durP1;ratioP1;P1;durP2;ratioP2;P2;SDS_P1;SDS_P2;PMS_P1;PMS_P2;Temp;Humidity;BMP_temperature;BMP_pressure;BME280_temperature;BME280_humidity;BME280_pressure;Samples;Min_cycle;Max_cycle;Signal;HPM_P1;HPM_P2
2023/02/23 00:00:28;;;;;;;9.20;3.42;;;;;;;6.10;100.00;100558.78;4990910;28;20495;-76
2023/02/23 00:03:00;;;;;;;15.20;4.38;;;;;;;6.50;100.00;100652.53;4989064;28;20175;-78
2023/02/23 00:05:27;;;;;;;12.05;5.47;;;;;;;6.55;100.00;100675.25;4993909;28;20375;-75
2023/02/23 00:07:53;;;;;;;8.85;2.75;;;;;;;6.36;100.00;100631.41;4990625;28;20065;-76
2023/02/23 00:10:20;;;;;;;10.18;4.32;;;;;;;6.22;100.00;100640.66;4989907;28;20164;-76
2023/02/23 00:12:46;;;;;;;8.88;3.83;;;;;;;6.22;100.00;100666.72;4982960;28;20126;-74
2023/02/23 00:15:12;;;;;;;5.80;2.78;;;;;;;6.38;100.00;100699.19;4989410;28;20058;-75
2023/02/23 00:17:39;;;;;;;8.60;3.13;;;;;;;6.30;100.00;100654.75;4983327;28;20452;-77
2023/02/23 00:20:10;;;;;;;6.25;1.92;;;;;;;5.91;100.00;100637.34;5005536;28;20061;-80
2023/02/23 00:22:39;;;;;;;4.43;2.88;;;;;;;6.19;100.00;100683.16;4999256;28;23485;-79
2023/02/23 00:25:07;;;;;;;7.07;4.00;;;;;;;6.30;100.00;100697.31;5010235;28;20121;-78
2023/02/23 00:27:37;;;;;;;10.52;4.28;;;;;;;5.91;100.00;100604.38;5001762;28;20109;-77
2023/02/23 00:30:04;;;;;;;10.90;3.60;;;;;;;5.96;100.00;100690.44;4985260;28;20030;-75
2023/02/23 00:32:29;;;;;;;6.03;3.63;;;;;;;5.88;100.00;100655.53;4997434;28;20045;-78
2023/02/23 00:34:57;;;;;;;7.78;3.50;;;;;;;6.00;100.00;100670.56;5004354;28;20046;-78
2023/02/23 00:37:23;;;;;;;10.32;4.60;;;;;;;5.33;100.00;100537.09;5011495;28;20039;-79
2023/02/23 00:39:49;;;;;;;10.65;4.18;;;;;;;5.46;100.00;100540.03;5006993;28;20049;-76
2023/02/23 00:42:14;;;;;;;8.15;4.13;;;;;;;5.78;100.00;100651.78;5003187;28;20054;-76
2023/02/23 00:44:41;;;;;;;9.23;5.03;;;;;;;5.87;100.00;100632.91;4992503;28;20034;-77
2023/02/23 00:47:07;;;;;;;12.48;4.53;;;;;;;5.69;100.00;100638.59;4983500;28;20043;-78
2023/02/23 00:49:32;;;;;;;10.40;5.03;;;;;;;5.75;100.00;100661.28;4990212;28;20314;-77
2023/02/23 00:51:58;;;;;;;14.25;5.80;;;;;;;5.11;100.00;100553.94;4985706;28;20050;-75
2023/02/23 00:54:24;;;;;;;9.60;4.68;;;;;;;5.83;100.00;100659.72;4984895;28;20046;-76
2023/02/23 00:56:51;;;;;;;9.60;5.30;;;;;;;5.72;100.00;100652.53;4991881;28;20057;-80
2023/02/23 00:59:17;;;;;;;14.13;5.40;;;;;;;5.76;100.00;100663.03;4992604;28;20034;-76
2023/02/23 01:01:43;;;;;;;10.20;4.45;;;;;;;5.71;100.00;100644.69;4999969;28;20056;-78
2023/02/23 01:04:10;;;;;;;9.07;4.15;;;;;;;5.48;100.00;100600.81;5003689;28;20125;-75
2023/02/23 01:06:37;;;;;;;13.35;6.55;;;;;;;5.65;100.00;100665.38;4999450;28;20418;-78
2023/02/23 01:09:08;;;;;;;13.02;5.30;;;;;;;5.13;100.00;100545.31;4986119;28;20034;-76
2023/02/23 01:11:33;;;;;;;8.68;4.28;;;;;;;4.00;100.00;100384.84;4986134;28;20038;-76
2023/02/23 01:14:00;;;;;;;12.57;5.55;;;;;;;4.94;100.00;100536.19;5003515;28;20088;-76
2023/02/23 01:16:30;;;;;;;7.68;4.32;;;;;;;4.78;100.00;100508.94;5005772;28;20131;-76
2023/02/23 01:19:02;;;;;;;15.20;4.70;;;;;;;5.52;100.00;100637.28;4992103;28;20051;-77
2023/02/23 01:21:31;;;;;;;12.77;4.80;;;;;;;4.83;100.00;100517.72;4980753;28;20121;-75
2023/02/23 01:23:57;;;;;;;12.45;4.20;;;;;;;5.18;100.00;100548.03;4981785;28;20914;-77
2023/02/23 01:26:26;;;;;;;19.88;4.75;;;;;;;5.53;100.00;100624.34;4987349;28;20121;-76
2023/02/23 01:28:57;;;;;;;10.52;5.57;;;;;;;5.56;100.00;100647.81;4983939;28;20646;-76
2023/02/23 01:31:23;;;;;;;12.30;5.07;;;;;;;4.73;100.00;100510.53;4980454;28;20116;-75
2023/02/23 01:33:56;;;;;;;12.55;4.72;;;;;;;5.15;100.00;100571.34;4978793;28;20141;-76
2023/02/23 01:36:21;;;;;;;9.90;5.20;;;;;;;5.62;100.00;100614.13;4986131;28;20061;-78
2023/02/23 01:38:48;;;;;;;12.00;6.53;;;;;;;5.65;100.00;100610.72;4999443;28;20069;-77
2023/02/23 01:41:15;;;;;;;11.50;4.43;;;;;;;5.14;100.00;100541.00;4981112;28;20043;-77
2023/02/23 01:44:02;;;;;;;13.60;4.78;;;;;;;5.22;100.00;100547.25;4997548;28;20143;-74
2023/02/23 01:46:34;;;;;;;12.50;6.40;;;;;;;5.50;100.00;100624.22;4999932;28;20192;-77
2023/02/23 01:49:00;;;;;;;16.13;5.60;;;;;;;4.80;100.00;100493.34;4991521;28;20538;-75
2023/02/23 01:51:32;;;;;;;18.35;5.28;;;;;;;5.16;100.00;100548.00;4983322;28;20050;-77
2023/02/23 01:54:23;;;;;;;14.98;5.70;;;;;;;5.60;100.00;100636.66;4973046;28;20038;-76
2023/02/23 01:56:58;;;;;;;12.55;5.78;;;;;;;4.86;100.00;100519.50;4975197;28;20054;-75
2023/02/23 01:59:32;;;;;;;9.57;4.20;;;;;;;5.67;100.00;100637.69;4977868;28;20069;-77
2023/02/23 02:01:59;;;;;;;8.13;4.30;;;;;;;5.55;100.00;100643.47;4980664;28;20034;-74
2023/02/23 02:04:25;;;;;;;16.95;6.38;;;;;;;5.56;100.00;100634.81;4973596;28;21253;-76
2023/02/23 02:06:52;;;;;;;17.15;4.68;;;;;;;5.50;100.00;100639.84;4982361;28;20042;-76
2023/02/23 02:09:24;;;;;;;7.82;3.53;;;;;;;5.74;100.00;100643.91;4984128;28;20436;-75
2023/02/23 02:11:52;;;;;;;9.48;4.70;;;;;;;5.66;100.00;100639.38;4983586;28;20076;-76
2023/02/23 02:14:26;;;;;;;10.05;5.30;;;;;;;5.39;100.00;100566.75;4978409;28;20076;-77
2023/02/23 02:17:01;;;;;;;20.30;5.13;;;;;;;5.76;100.00;100634.38;4997064;28;20046;-76
2023/02/23 02:19:36;;;;;;;10.73;5.20;;;;;;;5.83;100.00;100657.09;4978466;28;20499;-77
2023/02/23 02:22:20;;;;;;;8.57;3.90;;;;;;;5.69;100.00;100662.91;4989300;28;20056;-76
2023/02/23 02:24:54;;;;;;;7.43;3.75;;;;;;;5.56;100.00;100662.56;5004495;28;20474;-75
2023/02/23 02:27:56;;;;;;;16.08;4.78;;;;;;;5.40;100.00;100622.28;5006967;28;20037;-74
2023/02/23 02:30:51;;;;;;;16.00;6.60;;;;;;;5.55;100.00;100645.16;4999343;28;20053;-77
2023/02/23 02:33:57;;;;;;;13.55;5.03;;;;;;;5.46;100.00;100645.84;4996652;28;20056;-76
2023/02/23 02:37:01;;;;;;;8.20;4.70;;;;;;;5.43;100.00;100636.25;4992008;28;20053;-74
2023/02/23 02:39:45;;;;;;;10.45;4.85;;;;;;;4.80;100.00;100535.84;4987075;28;20058;-76
2023/02/23 02:42:42;;;;;;;15.77;5.18;;;;;;;5.50;100.00;100650.25;4983837;28;20061;-75
2023/02/23 02:45:07;;;;;;;13.55;5.57;;;;;;;4.85;100.00;100528.16;5002910;28;20049;-77
2023/02/23 02:47:49;;;;;;;13.07;4.57;;;;;;;5.41;100.00;100642.25;5001514;28;20030;-77
2023/02/23 02:50:40;;;;;;;10.55;5.07;;;;;;;5.28;100.00;100635.84;5005202;28;20050;-77
2023/02/23 02:53:08;;;;;;;8.93;4.53;;;;;;;4.28;100.00;100459.13;4986367;28;20502;-77
2023/02/23 02:55:40;;;;;;;14.15;5.55;;;;;;;5.39;100.00;100662.16;4989242;28;20046;-77
2023/02/23 02:58:07;;;;;;;7.20;3.72;;;;;;;5.52;100.00;100655.50;4996776;28;20042;-75
2023/02/23 04:18:27;;;;;;;10.40;5.55;;;;;;;5.53;100.00;100715.44;4984570;28;20054;-77
2023/02/23 04:20:54;;;;;;;17.83;6.55;;;;;;;5.38;100.00;100666.44;4982862;28;20041;-75
2023/02/23 04:23:21;;;;;;;10.88;5.82;;;;;;;4.75;100.00;100575.53;4977328;28;21013;-75
2023/02/23 04:25:48;;;;;;;16.73;7.20;;;;;;;3.91;100.00;100460.78;4984177;28;20054;-75
2023/02/23 04:28:13;;;;;;;13.25;6.43;;;;;;;4.67;100.00;100593.53;4984241;28;20602;-76
2023/02/23 04:30:39;;;;;;;12.23;6.35;;;;;;;4.49;100.00;100557.53;4983104;28;20128;-77
2023/02/23 04:33:05;;;;;;;10.63;6.32;;;;;;;5.25;100.00;100688.69;4981289;28;20044;-76
2023/02/23 04:35:30;;;;;;;17.98;7.88;;;;;;;4.84;100.00;100623.44;4987032;28;20054;-75
2023/02/23 04:37:56;;;;;;;15.88;5.55;;;;;;;4.96;100.00;100655.81;4977931;28;20120;-76
2023/02/23 04:40:22;;;;;;;11.13;5.88;;;;;;;5.40;100.00;100698.59;4982900;28;20050;-75
2023/02/23 04:42:47;;;;;;;11.43;6.35;;;;;;;4.63;100.00;100556.19;4979841;28;20501;-75
2023/02/23 04:45:13;;;;;;;10.60;6.13;;;;;;;5.20;100.00;100700.72;4982685;28;20140;-75
2023/02/23 04:47:38;;;;;;;13.82;5.72;;;;;;;5.06;100.00;100658.72;4981849;28;20246;-77
2023/02/23 04:50:06;;;;;;;20.52;8.18;;;;;;;4.51;100.00;100552.41;4987944;28;20148;-75
2023/02/23 04:52:33;;;;;;;9.80;5.20;;;;;;;4.44;100.00;100593.78;4977918;28;20149;-76
2023/02/23 04:54:59;;;;;;;12.52;5.72;;;;;;;4.58;100.00;100595.91;4979501;28;20038;-76
2023/02/23 04:57:26;;;;;;;14.35;5.80;;;;;;;4.65;100.00;100588.28;4978048;28;20039;-76
2023/02/23 04:59:51;;;;;;;11.95;5.80;;;;;;;4.79;100.00;100653.66;4981247;28;20034;-79
2023/02/23 05:02:17;;;;;;;18.33;6.00;;;;;;;4.23;100.00;100578.47;4984059;28;20037;-76
2023/02/23 05:04:43;;;;;;;18.55;6.18;;;;;;;4.16;100.00;100545.38;4983825;28;20050;-76
2023/02/23 05:07:09;;;;;;;16.38;8.65;;;;;;;4.84;100.00;100696.25;4992074;28;20077;-75
2023/02/23 05:09:34;;;;;;;17.67;7.15;;;;;;;4.82;100.00;100682.34;4981986;28;20128;-75
2023/02/23 05:12:00;;;;;;;20.02;5.85;;;;;;;4.81;100.00;100672.78;4982933;28;20136;-75
2023/02/23 05:14:26;;;;;;;18.23;6.93;;;;;;;4.11;100.00;100554.78;4979245;28;22009;-77
2023/02/23 05:16:52;;;;;;;10.88;6.03;;;;;;;4.21;100.00;100555.91;4982620;28;20150;-76
2023/02/23 05:19:17;;;;;;;12.88;6.78;;;;;;;4.42;100.00;100592.00;4981613;28;20133;-74
2023/02/23 05:21:43;;;;;;;14.32;6.03;;;;;;;4.85;100.00;100711.03;4981430;28;20140;-75
2023/02/23 05:24:09;;;;;;;10.32;5.50;;;;;;;4.81;100.00;100710.91;5005784;28;20081;-76
2023/02/23 05:26:35;;;;;;;35.85;6.65;;;;;;;4.67;100.00;100674.13;5005528;28;20487;-75
2023/02/23 05:29:01;;;;;;;12.43;6.72;;;;;;;4.63;100.00;100673.13;4983841;28;20069;-74
2023/02/23 05:31:27;;;;;;;12.60;5.72;;;;;;;3.98;100.00;100570.81;4983039;28;20062;-74
2023/02/23 05:33:52;;;;;;;18.25;6.25;;;;;;;4.13;100.00;100601.56;4982833;28;20105;-75
2023/02/23 05:36:20;;;;;;;9.77;6.95;;;;;;;4.75;100.00;100701.22;4985147;28;20384;-76
2023/02/23 05:38:47;;;;;;;17.45;8.23;;;;;;;4.99;100.00;100729.63;4977571;28;20049;-76
2023/02/23 05:41:15;;;;;;;18.83;8.35;;;;;;;4.15;100.00;100607.69;4984631;28;20149;-77
2023/02/23 05:43:41;;;;;;;14.70;6.80;;;;;;;5.08;100.00;100736.81;4986474;28;20050;-76
2023/02/23 05:46:13;;;;;;;19.63;8.10;;;;;;;4.45;100.00;100612.88;4982558;28;20062;-78
2023/02/23 05:48:39;;;;;;;11.38;6.55;;;;;;;5.17;100.00;100743.94;4982226;28;20100;-75
2023/02/23 05:51:07;;;;;;;14.60;8.57;;;;;;;5.14;100.00;100747.34;4995660;28;20161;-76
2023/02/23 05:53:33;;;;;;;15.75;7.13;;;;;;;5.17;100.00;100790.78;4996045;28;20034;-77
2023/02/23 05:56:01;;;;;;;15.35;7.10;;;;;;;4.61;100.00;100692.13;4995558;28;20244;-75
2023/02/23 05:58:27;;;;;;;13.05;7.60;;;;;;;5.05;100.00;100796.50;4999603;28;20045;-76
2023/02/23 06:00:52;;;;;;;17.83;7.85;;;;;;;5.10;100.00;100804.44;5002550;28;20050;-76
2023/02/23 06:03:18;;;;;;;26.38;10.25;;;;;;;4.42;100.00;100685.50;5001013;28;20061;-75
2023/02/23 06:05:55;;;;;;;13.13;7.53;;;;;;;4.97;100.00;100766.81;4999395;28;20035;-75
2023/02/23 06:08:22;;;;;;;13.82;5.68;;;;;;;5.07;100.00;100816.50;4998831;28;20047;-77
2023/02/23 06:10:47;;;;;;;15.80;7.10;;;;;;;4.38;100.00;100694.97;5001763;28;20046;-76
2023/02/23 06:13:13;;;;;;;21.75;8.55;;;;;;;4.56;100.00;100693.72;5001851;28;20054;-77
2023/02/23 06:15:39;;;;;;;14.48;6.78;;;;;;;5.15;100.00;100801.16;4998763;28;20197;-75
2023/02/23 06:18:07;;;;;;;14.93;5.90;;;;;;;5.04;100.00;100787.84;4978554;28;20099;-76
2023/02/23 06:20:32;;;;;;;12.30;6.47;;;;;;;4.23;100.00;100663.31;4983166;28;20060;-76
2023/02/23 06:22:58;;;;;;;17.27;6.78;;;;;;;5.02;100.00;100789.50;4977440;28;20061;-76
2023/02/23 06:25:23;;;;;;;15.93;6.45;;;;;;;5.32;100.00;100826.75;4981152;28;20096;-77
2023/02/23 06:27:49;;;;;;;15.63;8.85;;;;;;;5.18;100.00;100814.22;4981229;28;20097;-76
2023/02/23 06:30:15;;;;;;;11.57;4.88;;;;;;;4.69;100.00;100728.75;4983645;28;20043;-75
2023/02/23 06:32:41;;;;;;;11.57;5.32;;;;;;;4.74;100.00;100691.66;4979351;28;22667;-76
2023/02/23 06:35:07;;;;;;;14.82;5.35;;;;;;;5.58;100.00;100838.75;4995332;28;20061;-77
2023/02/23 06:37:33;;;;;;;16.88;5.38;;;;;;;4.60;100.00;100698.16;4993012;28;20128;-76
2023/02/23 06:39:59;;;;;;;13.95;6.47;;;;;;;5.55;100.00;100842.97;4983908;28;20046;-77
2023/02/23 06:42:24;;;;;;;12.57;5.65;;;;;;;4.93;100.00;100712.97;4977005;28;20050;-76
2023/02/23 06:44:50;;;;;;;13.60;6.82;;;;;;;4.99;100.00;100714.00;4983431;28;20406;-75
2023/02/23 06:47:15;;;;;;;22.25;6.05;;;;;;;4.81;100.00;100674.50;4986754;28;20053;-75
2023/02/23 06:49:41;;;;;;;9.57;4.63;;;;;;;5.65;100.00;100850.22;4981510;28;20197;-79
2023/02/23 06:52:08;;;;;;;11.02;6.20;;;;;;;5.09;100.00;100725.53;4988857;28;23734;-79
2023/02/23 06:54:34;;;;;;;16.33;6.30;;;;;;;5.90;100.00;100865.66;4987624;28;20154;-76
2023/02/23 06:57:00;;;;;;;32.13;7.45;;;;;;;5.85;100.00;100864.66;4978836;28;20397;-76
2023/02/23 06:59:25;;;;;;;22.92;8.10;;;;;;;6.05;100.00;100882.56;4985191;28;20043;-76
2023/02/23 07:01:51;;;;;;;13.60;6.00;;;;;;;5.79;100.00;100856.66;4982821;28;20057;-76
2023/02/23 07:04:16;;;;;;;17.13;9.18;;;;;;;5.01;100.00;100704.53;4987840;28;20578;-75
2023/02/23 07:06:42;;;;;;;17.58;7.15;;;;;;;5.83;100.00;100850.72;4985860;28;20056;-79
2023/02/23 07:09:07;;;;;;;15.80;7.97;;;;;;;5.53;100.00;100835.16;4992286;28;20034;-76
2023/02/23 07:11:33;;;;;;;17.17;6.13;;;;;;;5.71;100.00;100842.56;5003468;28;20514;-80
2023/02/23 07:14:00;;;;;;;18.13;7.00;;;;;;;6.05;100.00;100853.91;5006263;28;20038;-75
2023/02/23 07:16:26;;;;;;;16.65;6.00;;;;;;;6.04;100.00;100870.34;5001108;28;20522;-76
2023/02/23 07:18:52;;;;;;;16.65;5.57;;;;;;;5.95;100.00;100873.63;5005039;28;20126;-77
2023/02/23 07:21:17;;;;;;;16.13;6.80;;;;;;;6.44;100.00;100871.34;5004608;28;20049;-79
2023/02/23 07:23:43;;;;;;;14.63;5.15;;;;;;;6.17;100.00;100829.88;4991361;28;20096;-75
2023/02/23 07:26:08;;;;;;;27.45;6.53;;;;;;;6.36;100.00;100867.69;4984602;28;20454;-80
2023/02/23 07:28:34;;;;;;;11.07;5.25;;;;;;;6.57;100.00;100885.56;4998913;28;20375;-74
2023/02/23 07:30:59;;;;;;;13.32;6.57;;;;;;;6.57;100.00;100901.22;5002774;28;20042;-75
2023/02/23 07:33:25;;;;;;;16.30;6.05;;;;;;;6.45;100.00;100889.63;5005262;28;20077;-74
2023/02/23 07:35:51;;;;;;;13.55;6.18;;;;;;;6.11;100.00;100789.81;5001039;28;20504;-76
2023/02/23 07:38:17;;;;;;;11.27;5.35;;;;;;;6.28;100.00;100803.22;4998351;28;20049;-78
2023/02/23 07:40:42;;;;;;;30.63;7.93;;;;;;;6.60;100.00;100912.59;5007314;28;20092;-77
2023/02/23 07:43:08;;;;;;;13.70;5.55;;;;;;;6.72;100.00;100915.50;5007098;28;20060;-77
2023/02/23 07:45:34;;;;;;;11.98;5.95;;;;;;;6.40;100.00;100886.03;5002051;28;20046;-77
2023/02/23 07:48:00;;;;;;;11.73;4.65;;;;;;;6.39;100.00;100879.09;5005732;28;20352;-76
2023/02/23 07:50:25;;;;;;;23.48;6.05;;;;;;;6.39;100.00;100917.28;5006034;28;20046;-75
2023/02/23 07:52:51;;;;;;;16.08;7.55;;;;;;;6.63;100.00;100922.22;5002987;28;20133;-75
2023/02/23 07:55:17;;;;;;;17.70;5.85;;;;;;;5.92;100.00;100813.59;4990188;28;20502;-75
2023/02/23 07:57:43;;;;;;;30.85;7.68;;;;;;;6.43;100.00;100867.00;4988796;28;20056;-75
2023/02/23 08:00:11;;;;;;;17.10;6.93;;;;;;;6.13;100.00;100797.63;4983418;28;20061;-75
2023/02/23 08:02:37;;;;;;;17.25;6.15;;;;;;;5.81;100.00;100779.47;4980428;28;20148;-75
2023/02/23 08:05:02;;;;;;;22.92;5.57;;;;;;;6.67;100.00;100917.13;4984986;28;20494;-75
2023/02/23 08:07:31;;;;;;;13.38;5.55;;;;;;;6.40;100.00;100807.84;4983946;28;20157;-75
2023/02/23 08:09:56;;;;;;;19.92;5.97;;;;;;;6.22;100.00;100797.88;4986861;28;20057;-75
2023/02/23 08:12:22;;;;;;;23.33;6.32;;;;;;;6.38;100.00;100813.88;4984617;28;20050;-75
2023/02/23 08:14:47;;;;;;;21.77;8.05;;;;;;;7.21;100.00;100923.56;4991000;28;20093;-76
2023/02/23 08:17:13;;;;;;;22.25;8.88;;;;;;;6.58;100.00;100823.03;4984771;28;20414;-75
2023/02/23 08:19:39;;;;;;;15.63;6.97;;;;;;;6.44;100.00;100834.84;4984786;28;20054;-77
2023/02/23 08:22:05;;;;;;;18.92;5.85;;;;;;;6.97;100.00;100943.03;4975613;28;20502;-75
2023/02/23 08:24:30;;;;;;;20.63;6.60;;;;;;;7.37;100.00;100962.22;4984728;28;20121;-76
2023/02/23 08:26:57;;;;;;;24.85;9.65;;;;;;;6.27;100.00;100837.94;4982260;28;20208;-75
2023/02/23 08:29:23;;;;;;;18.45;8.32;;;;;;;6.83;100.00;100951.38;4978517;28;20042;-76
2023/02/23 08:31:50;;;;;;;21.25;7.38;;;;;;;7.13;100.00;100923.38;4982771;28;20141;-75
2023/02/23 08:34:16;;;;;;;7.15;4.30;;;;;;;4.94;100.00;100661.00;4981128;28;20116;-75
2023/02/23 08:36:44;;;;;;;14.43;5.03;;;;;;;7.07;100.00;100944.16;4980810;28;20518;-75
2023/02/23 08:39:11;;;;;;;15.15;5.13;;;;;;;5.86;100.00;100811.72;4983699;28;20053;-75
2023/02/23 08:41:37;;;;;;;14.40;8.38;;;;;;;6.90;100.00;100956.78;4978803;28;20106;-75
2023/02/23 08:44:02;;;;;;;20.10;5.80;;;;;;;6.09;100.00;100821.88;4981708;28;20134;-75
2023/02/23 08:46:29;;;;;;;10.52;4.80;;;;;;;6.45;100.00;100897.47;4980725;28;20049;-75
2023/02/23 08:48:55;;;;;;;14.15;4.68;;;;;;;6.60;100.00;100865.66;4985433;28;20080;-76
2023/02/23 08:51:21;;;;;;;9.40;4.60;;;;;;;6.59;100.00;100871.72;4985091;28;20050;-76
2023/02/23 08:53:47;;;;;;;15.55;7.18;;;;;;;7.29;100.00;100965.50;4974843;28;20084;-75
2023/02/23 08:56:14;;;;;;;11.70;7.25;;;;;;;7.57;100.00;100969.59;4987046;28;20386;-75
2023/02/23 08:58:40;;;;;;;20.40;5.55;;;;;;;6.67;100.00;100898.88;4979156;28;20470;-75
2023/02/23 09:01:06;;;;;;;9.10;4.93;;;;;;;6.49;100.00;100831.53;4985442;28;20133;-77
2023/02/23 09:03:32;;;;;;;13.40;6.90;;;;;;;6.80;100.00;100867.84;4984151;28;20547;-75
2023/02/23 09:06:04;;;;;;;13.18;6.82;;;;;;;6.25;100.00;100833.53;4982087;28;20070;-75
2023/02/23 09:08:30;;;;;;;14.00;6.63;;;;;;;7.00;100.00;100874.41;4981160;28;20043;-75
2023/02/23 09:10:55;;;;;;;10.65;6.90;;;;;;;7.51;100.00;100980.75;4981413;28;20513;-75
2023/02/23 09:13:21;;;;;;;15.43;6.90;;;;;;;6.63;100.00;100850.09;4981452;28;20057;-75
2023/02/23 09:15:46;;;;;;;10.80;7.18;;;;;;;7.91;100.00;100999.00;4986180;28;20600;-76
2023/02/23 09:18:13;;;;;;;13.88;5.97;;;;;;;6.94;100.00;100893.41;4988015;28;20054;-74
2023/02/23 09:20:43;;;;;;;16.33;5.65;;;;;;;7.98;100.00;100987.81;4987386;28;20096;-75
2023/02/23 09:23:09;;;;;;;13.35;7.18;;;;;;;7.05;100.00;100887.56;4981628;28;20507;-74
2023/02/23 09:25:42;;;;;;;20.00;5.40;;;;;;;7.92;100.00;100983.38;4984381;28;20050;-75
2023/02/23 09:28:14;;;;;;;10.75;5.82;;;;;;;7.67;100.00;101004.63;4981380;28;20046;-75
2023/02/23 09:30:41;;;;;;;23.67;7.30;;;;;;;7.48;100.00;100883.22;4984158;28;20053;-74
2023/02/23 09:33:07;;;;;;;23.35;8.30;;;;;;;7.26;100.00;100989.81;4982554;28;20146;-75
2023/02/23 09:35:35;;;;;;;17.20;8.32;;;;;;;7.38;100.00;100994.41;4980871;28;20118;-75
2023/02/23 09:38:02;;;;;;;13.88;8.25;;;;;;;6.97;100.00;100961.28;4983010;28;20049;-75
2023/02/23 09:40:50;;;;;;;16.20;6.97;;;;;;;7.28;100.00;100976.78;4980622;28;20162;-75
2023/02/23 09:43:50;;;;;;;12.85;5.55;;;;;;;6.88;100.00;100868.91;4980439;28;20120;-75
2023/02/23 09:46:43;;;;;;;15.18;7.55;;;;;;;7.36;100.00;101037.88;4983734;28;20118;-75
2023/02/23 09:49:15;;;;;;;12.50;5.20;;;;;;;7.32;100.00;100905.53;4984188;28;20146;-74
2023/02/23 09:51:47;;;;;;;11.45;7.18;;;;;;;7.36;100.00;101009.16;4982559;28;20046;-75
2023/02/23 09:54:15;;;;;;;16.17;7.55;;;;;;;7.91;100.00;101009.47;4998706;28;20100;-75
2023/02/23 09:56:46;;;;;;;16.85;6.72;;;;;;;7.68;100.00;100938.44;4983565;28;20088;-74
2023/02/23 09:59:17;;;;;;;17.23;6.57;;;;;;;8.30;100.00;101053.81;4986507;28;20483;-74
2023/02/23 10:01:48;;;;;;;18.80;8.07;;;;;;;8.61;100.00;101062.28;4982435;28;20052;-75
2023/02/23 10:04:27;;;;;;;11.02;7.38;;;;;;;8.73;100.00;101070.34;4979008;28;20805;-76
2023/02/23 10:07:24;;;;;;;19.52;7.25;;;;;;;8.68;100.00;101076.34;4980405;28;20062;-75
2023/02/23 10:10:20;;;;;;;19.25;7.80;;;;;;;8.61;100.00;101072.72;4977556;28;20046;-75
2023/02/23 10:13:08;;;;;;;16.70;6.32;;;;;;;8.54;100.00;101076.97;4982943;28;20034;-74
2023/02/23 10:15:54;;;;;;;23.77;6.20;;;;;;;8.35;100.00;101077.44;4980071;28;20693;-76
2023/02/23 10:18:22;;;;;;;13.75;6.13;;;;;;;8.19;100.00;101071.00;4984442;28;20061;-74
2023/02/23 10:21:29;;;;;;;14.82;7.68;;;;;;;7.65;100.00;101063.75;4986743;28;20042;-76
2023/02/23 10:24:02;;;;;;;18.83;7.10;;;;;;;8.11;100.00;101042.13;4963925;28;20050;-78
2023/02/23 10:26:37;;;;;;;14.13;6.85;;;;;;;8.00;100.00;101013.13;4982871;28;20482;-77
2023/02/23 10:29:13;;;;;;;14.45;5.55;;;;;;;7.25;100.00;100927.13;4975238;28;20066;-75
2023/02/23 10:31:47;;;;;;;27.15;7.25;;;;;;;7.25;100.00;100895.78;4988361;28;20052;-74
2023/02/23 10:34:15;;;;;;;13.43;7.50;;;;;;;8.07;100.00;101042.03;4980987;28;20148;-75
2023/02/23 10:36:59;;;;;;;15.88;7.35;;;;;;;8.35;100.00;101060.00;4980478;28;20098;-76
2023/02/23 10:39:25;;;;;;;21.45;6.70;;;;;;;7.80;100.00;100975.28;4979348;28;20097;-76
2023/02/23 10:41:53;;;;;;;21.40;7.55;;;;;;;7.75;100.00;100928.19;4983981;28;20080;-75
2023/02/23 10:44:23;;;;;;;9.82;6.38;;;;;;;8.44;100.00;101064.56;4981630;28;20409;-75
2023/02/23 10:46:54;;;;;;;11.35;6.75;;;;;;;7.63;100.00;100927.91;4985345;28;20062;-75
2023/02/23 10:49:23;;;;;;;12.77;6.50;;;;;;;7.93;100.00;101049.56;4984677;28;20108;-75
2023/02/23 10:51:51;;;;;;;17.77;6.50;;;;;;;8.23;100.00;101046.69;4976695;28;20447;-75
2023/02/23 10:54:37;;;;;;;18.75;6.93;;;;;;;8.03;100.00;101064.63;4982179;28;20092;-75
2023/02/23 10:57:04;;;;;;;17.02;6.20;;;;;;;8.36;100.00;101053.06;4981460;28;20229;-75
2023/02/23 10:59:30;;;;;;;18.20;6.35;;;;;;;7.69;100.00;100951.56;4979476;28;20038;-74
2023/02/23 11:01:56;;;;;;;18.55;5.90;;;;;;;8.38;100.00;101062.69;4981845;28;20069;-74
2023/02/23 11:04:30;;;;;;;12.82;5.65;;;;;;;8.45;100.00;101068.94;4982208;28;20076;-74
2023/02/23 11:07:14;;;;;;;12.55;5.68;;;;;;;7.74;100.00;100935.97;4983862;28;20047;-74
2023/02/23 11:09:40;;;;;;;11.50;5.68;;;;;;;8.03;100.00;101005.38;4987367;28;20054;-76
2023/02/23 11:12:20;;;;;;;13.93;6.50;;;;;;;8.21;100.00;101051.00;4989242;28;20054;-77
2023/02/23 11:14:47;;;;;;;15.48;5.68;;;;;;;8.34;100.00;101073.06;4986337;28;20036;-76
2023/02/23 11:17:27;;;;;;;12.02;6.00;;;;;;;8.18;100.00;101075.38;4985581;28;20220;-77
2023/02/23 11:20:30;;;;;;;13.52;6.05;;;;;;;8.16;100.00;101066.59;4982339;28;20121;-83
2023/02/23 11:22:56;;;;;;;23.80;6.50;;;;;;;7.93;100.00;101053.06;4961074;28;20046;-76
2023/02/23 11:25:29;;;;;;;15.25;6.38;;;;;;;7.92;100.00;101061.75;4988125;28;20094;-76
2023/02/23 11:27:55;;;;;;;12.23;6.13;;;;;;;7.36;100.00;100964.78;4985328;28;20058;-78
2023/02/23 11:30:36;;;;;;;15.65;5.95;;;;;;;7.90;100.00;101076.53;4982933;28;20047;-78
2023/02/23 11:33:09;;;;;;;15.02;7.30;;;;;;;6.56;100.00;100936.84;4980802;28;20491;-76
2023/02/23 11:35:35;;;;;;;12.40;5.60;;;;;;;7.11;100.00;101057.28;4986984;28;20664;-75
2023/02/23 11:38:19;;;;;;;8.88;4.50;;;;;;;7.15;100.00;101041.75;4982499;28;20047;-77
2023/02/23 11:41:06;;;;;;;12.57;6.55;;;;;;;6.71;100.00;100941.53;4981004;28;20060;-76
2023/02/23 11:43:31;;;;;;;9.40;5.03;;;;;;;6.53;100.00;100949.78;4975726;28;20058;-76
2023/02/23 11:45:59;;;;;;;9.60;5.05;;;;;;;7.18;100.00;101018.31;4981251;28;20050;-74
2023/02/23 11:48:43;;;;;;;8.77;4.00;;;;;;;7.47;100.00;101087.72;4979904;28;20060;-76
2023/02/23 11:51:09;;;;;;;12.45;5.30;;;;;;;7.26;100.00;101080.25;4985446;28;20034;-73
2023/02/23 11:53:41;;;;;;;9.75;5.25;;;;;;;7.08;100.00;101065.06;4990835;28;20037;-76
2023/02/23 11:56:09;;;;;;;13.90;4.57;;;;;;;6.60;100.00;100980.38;4985052;28;20089;-73
2023/02/23 11:58:54;;;;;;;24.00;5.65;;;;;;;6.64;100.00;100982.22;4989051;28;20074;-74
2023/02/23 12:01:33;;;;;;;16.70;6.32;;;;;;;7.17;100.00;101097.47;4983199;28;20125;-75
2023/02/23 12:03:58;;;;;;;13.68;6.32;;;;;;;7.10;100.00;101066.84;4978208;28;20050;-74
2023/02/23 12:06:31;;;;;;;10.00;5.20;;;;;;;6.39;100.00;100961.59;4982956;28;20115;-73
2023/02/23 12:09:12;;;;;;;10.15;5.18;;;;;;;7.14;100.00;101105.25;4983108;28;20350;-76
2023/02/23 12:11:43;;;;;;;12.20;4.80;;;;;;;6.45;100.00;100967.84;4984386;28;20029;-75
2023/02/23 12:15:01;;;;;;;12.13;4.35;;;;;;;7.22;100.00;101108.03;4982741;28;20054;-74
2023/02/23 12:17:35;;;;;;;11.60;4.38;;;;;;;6.90;100.00;101082.00;4970111;28;20141;-74
2023/02/23 12:20:24;;;;;;;10.43;4.75;;;;;;;7.15;100.00;101109.59;4976240;28;20479;-73
2023/02/23 12:22:58;;;;;;;13.55;4.63;;;;;;;6.84;100.00;101057.50;4975913;28;20050;-74
2023/02/23 12:25:35;;;;;;;11.60;4.40;;;;;;;7.18;100.00;101077.47;4984030;28;20046;-74
2023/02/23 12:28:26;;;;;;;7.68;3.33;;;;;;;6.18;100.00;100967.13;4982936;28;21766;-75
2023/02/23 12:31:13;;;;;;;13.90;4.78;;;;;;;6.94;100.00;101109.94;4982435;28;20399;-74
2023/02/23 12:33:43;;;;;;;8.10;4.30;;;;;;;6.43;100.00;100976.47;4980800;28;20061;-74
2023/02/23 12:36:46;;;;;;;7.15;2.70;;;;;;;7.18;100.00;101117.50;4980775;28;20054;-74
2023/02/23 12:39:29;;;;;;;7.97;2.97;;;;;;;7.19;100.00;101123.63;4983593;28;20054;-76
2023/02/23 12:42:21;;;;;;;16.83;4.88;;;;;;;6.90;100.00;101096.75;4971653;28;20046;-75
2023/02/23 12:45:02;;;;;;;8.52;3.75;;;;;;;6.45;100.00;101008.69;4980705;28;20057;-73
2023/02/23 12:47:36;;;;;;;7.45;3.10;;;;;;;6.71;100.00;101071.94;4985006;28;20074;-75
2023/02/23 12:50:12;;;;;;;10.93;2.53;;;;;;;6.57;100.00;101055.03;4983235;28;20058;-74
2023/02/23 12:52:48;;;;;;;8.82;4.45;;;;;;;6.37;100.00;100992.84;4984385;28;20077;-74